createdAt,value
2022-12-12T00:00:40.822Z,0
2022-12-12T00:01:29.010Z,0
2022-12-12T00:02:24.717Z,0
2022-12-12T00:03:39.884Z,0
2022-12-12T00:04:31.724Z,0
2022-12-12T00:05:56.155Z,0
2022-12-12T00:06:48.659Z,0
2022-12-12T00:07:43.866Z,0
2022-12-12T00:08:48.638Z,0
2022-12-12T00:09:34.229Z,0
2022-12-12T00:10:48.641Z,0
2022-12-12T00:11:35.551Z,0
2022-12-12T00:12:22.758Z,0
2022-12-12T00:13:28.767Z,0
2022-12-12T00:14:32.539Z,0
2022-12-12T00:15:29.087Z,0
2022-12-12T00:16:29.301Z,0
2022-12-12T00:17:23.272Z,0
2022-12-12T00:18:39.102Z,0
2022-12-12T00:19:24.570Z,0
2022-12-12T00:20:38.492Z,0
2022-12-12T00:21:47.490Z,0
2022-12-12T00:22:33.893Z,0
2022-12-12T00:23:31.684Z,0
2022-12-12T00:24:25.202Z,0
2022-12-12T00:25:29.984Z,0
2022-12-12T00:26:26.366Z,0
2022-12-12T00:27:29.844Z,0
2022-12-12T00:28:23.283Z,0
2022-12-12T00:29:35.531Z,0
2022-12-12T00:30:24.104Z,0
2022-12-12T00:31:29.039Z,0
2022-12-12T00:32:22.159Z,0
2022-12-12T00:33:29.386Z,0
2022-12-12T00:34:27.003Z,0
2022-12-12T00:35:23.147Z,0
2022-12-12T00:36:27.342Z,0
2022-12-12T00:37:26.461Z,0
2022-12-12T00:38:27.251Z,0
2022-12-12T00:39:22.777Z,0
2022-12-12T00:40:32.499Z,0
2022-12-12T00:41:27.875Z,0
2022-12-12T00:42:31.002Z,0
2022-12-12T00:43:41.386Z,0
2022-12-12T00:44:29.260Z,0
2022-12-12T00:45:24.936Z,0
2022-12-12T00:46:27.008Z,0
2022-12-12T00:47:24.879Z,0
2022-12-12T00:48:22.280Z,0
2022-12-12T00:49:50.735Z,0
2022-12-12T00:50:43.362Z,0
2022-12-12T00:51:33.252Z,0
2022-12-12T00:52:25.456Z,0
2022-12-12T00:53:32.742Z,0
2022-12-12T00:54:25.159Z,0
2022-12-12T00:55:21.610Z,0
2022-12-12T00:56:23.186Z,0
2022-12-12T00:57:34.639Z,0
2022-12-12T00:58:23.600Z,0
2022-12-12T00:59:23.052Z,0
2022-12-12T01:00:23.965Z,0
2022-12-12T01:01:29.240Z,0
2022-12-12T01:02:28.139Z,0
2022-12-12T01:03:23.656Z,0
2022-12-12T01:04:27.123Z,0
2022-12-12T01:05:40.329Z,0
2022-12-12T01:06:24.506Z,0
2022-12-12T01:07:40.410Z,0
2022-12-12T01:08:31.742Z,0
2022-12-12T01:09:25.176Z,0
2022-12-12T01:10:29.644Z,0
2022-12-12T01:11:44.795Z,0
2022-12-12T01:12:39.231Z,0
2022-12-12T01:13:26.513Z,0
2022-12-12T01:14:36.554Z,0
2022-12-12T01:15:24.809Z,0
2022-12-12T01:16:28.885Z,0
2022-12-12T01:17:21.263Z,0
2022-12-12T01:18:19.556Z,0
2022-12-12T01:19:43.919Z,0
2022-12-12T01:20:29.598Z,0
2022-12-12T01:21:29.325Z,0
2022-12-12T01:22:41.563Z,0
2022-12-12T01:23:34.431Z,0
2022-12-12T01:24:28.073Z,0
2022-12-12T01:25:23.659Z,0
2022-12-12T01:26:30.996Z,0
2022-12-12T01:27:25.385Z,0
2022-12-12T01:28:46.878Z,0
2022-12-12T01:29:31.112Z,0
2022-12-12T01:30:38.810Z,0
2022-12-12T01:31:30.120Z,0
2022-12-12T01:32:24.080Z,0
2022-12-12T01:33:24.074Z,0
2022-12-12T01:34:35.378Z,0
2022-12-12T01:35:24.679Z,0
2022-12-12T01:36:49.581Z,0
2022-12-12T01:37:48.139Z,0
2022-12-12T01:38:32.515Z,0
2022-12-12T01:39:27.149Z,0
2022-12-12T01:40:22.280Z,0
2022-12-12T01:41:38.330Z,0
2022-12-12T01:42:25.365Z,0
2022-12-12T01:43:21.986Z,0
2022-12-12T01:44:35.626Z,0
2022-12-12T01:45:35.227Z,0
2022-12-12T01:46:23.520Z,0
2022-12-12T01:47:23.730Z,0
2022-12-12T01:48:22.444Z,0
2022-12-12T01:49:29.133Z,0
2022-12-12T01:50:40.597Z,0
2022-12-12T01:51:52.773Z,0
2022-12-12T01:52:24.854Z,0
2022-12-12T01:53:23.377Z,0
2022-12-12T01:54:27.858Z,0
2022-12-12T01:55:21.885Z,0
2022-12-12T01:56:22.141Z,0
2022-12-12T01:58:01.023Z,0
2022-12-12T01:58:43.559Z,0
2022-12-12T01:59:40.974Z,0
2022-12-12T02:00:28.576Z,0
2022-12-12T02:01:34.389Z,0
2022-12-12T02:02:25.800Z,0
2022-12-12T02:20:39.131Z,0
2022-12-12T02:21:37.078Z,0
2022-12-12T02:22:44.900Z,0
2022-12-12T02:23:31.827Z,0
2022-12-12T02:24:31.522Z,0
2022-12-12T02:25:23.570Z,0
2022-12-12T02:26:22.865Z,0
2022-12-12T02:27:39.161Z,0
2022-12-12T02:28:22.792Z,0
2022-12-12T02:29:26.970Z,0
2022-12-12T02:30:25.333Z,0
2022-12-12T02:31:23.344Z,0
2022-12-12T02:32:27.191Z,0
2022-12-12T02:33:22.169Z,0
2022-12-12T02:34:23.530Z,0
2022-12-12T02:35:35.075Z,0
2022-12-12T02:36:28.181Z,0
2022-12-12T02:37:26.805Z,0
2022-12-12T02:38:22.152Z,0
2022-12-12T02:39:31.187Z,0
2022-12-12T02:40:25.460Z,0
2022-12-12T02:41:23.925Z,0
2022-12-12T02:42:21.247Z,0
2022-12-12T02:43:33.002Z,0
2022-12-12T02:44:25.315Z,0
2022-12-12T02:45:25.855Z,0
2022-12-12T02:46:43.920Z,0
2022-12-12T02:47:27.770Z,0
2022-12-12T02:48:22.795Z,0
2022-12-12T02:49:22.794Z,0
2022-12-12T02:50:36.852Z,0
2022-12-12T02:51:24.270Z,0
2022-12-12T02:52:36.919Z,0
2022-12-12T02:53:38.943Z,0
2022-12-12T02:54:32.639Z,0
2022-12-12T02:55:26.094Z,0
2022-12-12T02:56:22.119Z,0
2022-12-12T02:57:35.571Z,0
2022-12-12T02:58:25.263Z,0
2022-12-12T02:59:24.056Z,0
2022-12-12T03:00:46.680Z,0
2022-12-12T03:01:34.538Z,0
2022-12-12T03:02:24.241Z,0
2022-12-12T03:03:21.422Z,0
2022-12-12T03:04:22.790Z,0
2022-12-12T03:05:29.203Z,0
2022-12-12T03:07:04.243Z,0
2022-12-12T03:07:50.031Z,0
2022-12-12T03:08:31.947Z,0
2022-12-12T03:09:23.760Z,0
2022-12-12T03:10:26.400Z,0
2022-12-12T03:11:26.888Z,0
2022-12-12T03:12:21.928Z,0
2022-12-12T03:13:22.426Z,0
2022-12-12T03:14:37.048Z,0
2022-12-12T03:15:39.971Z,0
2022-12-12T03:16:26.887Z,0
2022-12-12T03:17:29.711Z,0
2022-12-12T03:18:22.660Z,0
2022-12-12T03:19:25.351Z,0
2022-12-12T03:20:22.222Z,0
2022-12-12T03:21:56.292Z,0
2022-12-12T03:22:42.675Z,0
2022-12-12T03:23:30.048Z,0
2022-12-12T03:24:22.444Z,0
2022-12-12T03:25:26.977Z,0
2022-12-12T03:26:23.525Z,0
2022-12-12T03:27:23.715Z,0
2022-12-12T03:29:00.300Z,0
2022-12-12T03:29:46.710Z,0
2022-12-12T03:30:26.068Z,0
2022-12-12T03:31:37.890Z,0
2022-12-12T03:32:30.864Z,0
2022-12-12T03:33:25.743Z,0
2022-12-12T03:34:26.376Z,0
2022-12-12T03:36:04.583Z,0
2022-12-12T03:36:30.471Z,0
2022-12-12T03:37:36.819Z,0
2022-12-12T03:38:22.131Z,0
2022-12-12T03:39:36.892Z,0
2022-12-12T03:40:28.091Z,0
2022-12-12T03:41:22.614Z,0
2022-12-12T03:42:22.887Z,0
2022-12-12T03:43:52.353Z,0
2022-12-12T03:44:41.600Z,0
2022-12-12T03:45:26.808Z,0
2022-12-12T03:46:40.027Z,0
2022-12-12T03:47:28.885Z,0
2022-12-12T03:48:27.351Z,0
2022-12-12T03:49:21.998Z,0
2022-12-12T03:50:24.319Z,0
2022-12-12T03:51:23.354Z,0
2022-12-12T03:52:27.384Z,0
2022-12-12T03:53:33.090Z,0
2022-12-12T03:54:37.180Z,0
2022-12-12T03:55:30.510Z,0
2022-12-12T03:56:23.681Z,0
2022-12-12T03:57:24.527Z,0
2022-12-12T03:58:23.824Z,0
2022-12-12T03:59:32.306Z,0
2022-12-12T04:00:48.201Z,0
2022-12-12T04:01:53.009Z,0
2022-12-12T04:02:34.142Z,0
2022-12-12T04:03:25.807Z,0
2022-12-12T04:05:01.816Z,0
2022-12-12T04:05:43.592Z,0
2022-12-12T04:07:00.163Z,0
2022-12-12T04:07:22.270Z,0
2022-12-12T04:08:45.206Z,0
2022-12-12T04:09:24.103Z,0
2022-12-12T04:10:31.998Z,0
2022-12-12T04:11:23.606Z,0
2022-12-12T04:12:27.763Z,0
2022-12-12T04:13:38.786Z,0
2022-12-12T04:14:23.796Z,0
2022-12-12T04:15:27.369Z,0
2022-12-12T04:16:42.118Z,0
2022-12-12T04:17:36.101Z,0
2022-12-12T04:18:27.057Z,0
2022-12-12T04:19:22.897Z,0
2022-12-12T04:20:24.661Z,0
2022-12-12T04:21:26.530Z,0
2022-12-12T04:22:45.316Z,0
2022-12-12T04:23:48.957Z,0
2022-12-12T04:24:36.016Z,0
2022-12-12T04:25:23.437Z,0
2022-12-12T04:26:24.052Z,0
2022-12-12T04:27:28.696Z,0
2022-12-12T04:28:22.678Z,0
2022-12-12T04:29:42.052Z,0
2022-12-12T04:30:24.312Z,0
2022-12-12T04:31:43.431Z,0
2022-12-12T04:32:26.860Z,0
2022-12-12T04:33:23.504Z,0
2022-12-12T04:34:22.799Z,0
2022-12-12T04:35:24.763Z,0
2022-12-12T04:36:19.835Z,0
2022-12-12T04:37:22.659Z,0
2022-12-12T04:38:34.293Z,0
2022-12-12T04:39:29.793Z,0
2022-12-12T04:40:31.951Z,0
2022-12-12T04:41:25.060Z,0
2022-12-12T04:42:29.591Z,0
2022-12-12T04:43:25.478Z,0
2022-12-12T04:44:22.635Z,0
2022-12-12T04:45:45.531Z,0
2022-12-12T04:46:32.908Z,0
2022-12-12T04:47:23.458Z,0
2022-12-12T04:48:28.461Z,0
2022-12-12T04:49:23.108Z,0
2022-12-12T04:50:26.547Z,0
2022-12-12T04:51:22.642Z,0
2022-12-12T04:52:47.459Z,0
2022-12-12T04:53:35.311Z,0
2022-12-12T04:54:24.287Z,0
2022-12-12T04:55:19.532Z,0
2022-12-12T04:56:38.979Z,0
2022-12-12T04:57:30.748Z,0
2022-12-12T04:58:23.559Z,0
2022-12-12T04:59:51.497Z,0
2022-12-12T05:00:28.532Z,0
2022-12-12T05:01:23.344Z,0
2022-12-12T05:02:33.651Z,0
2022-12-12T05:03:31.740Z,0
2022-12-12T05:04:31.599Z,0
2022-12-12T05:05:29.417Z,0
2022-12-12T05:06:22.691Z,0
2022-12-12T05:07:41.432Z,0
2022-12-12T05:08:28.495Z,0
2022-12-12T05:09:35.198Z,0
2022-12-12T05:10:33.818Z,0
2022-12-12T05:11:25.158Z,0
2022-12-12T05:12:23.537Z,0
2022-12-12T05:13:25.238Z,0
2022-12-12T05:14:42.794Z,0
2022-12-12T05:15:31.381Z,0
2022-12-12T05:16:49.553Z,0
2022-12-12T05:17:30.149Z,0
2022-12-12T05:18:31.966Z,0
2022-12-12T05:19:26.642Z,0
2022-12-12T05:20:31.640Z,0
2022-12-12T05:21:22.887Z,0
2022-12-12T05:22:24.552Z,0
2022-12-12T05:23:19.875Z,0
2022-12-12T05:24:43.266Z,0
2022-12-12T05:25:36.127Z,0
2022-12-12T05:26:24.008Z,0
2022-12-12T05:27:22.544Z,0
2022-12-12T05:28:27.716Z,0
2022-12-12T05:29:20.029Z,0
2022-12-12T05:30:54.468Z,0
2022-12-12T05:31:47.561Z,0
2022-12-12T05:32:41.255Z,0
2022-12-12T05:33:31.868Z,0
2022-12-12T05:34:24.601Z,0
2022-12-12T05:35:30.832Z,0
2022-12-12T05:36:24.624Z,0
2022-12-12T05:37:25.530Z,0
2022-12-12T05:38:51.383Z,0
2022-12-12T05:39:44.159Z,0
2022-12-12T05:40:37.404Z,0
2022-12-12T05:41:23.985Z,0
2022-12-12T05:42:22.974Z,0
2022-12-12T05:43:29.739Z,0
2022-12-12T05:44:22.814Z,0
2022-12-12T05:45:27.842Z,0
2022-12-12T05:46:43.028Z,0
2022-12-12T05:47:41.186Z,0
2022-12-12T05:48:25.215Z,0
2022-12-12T05:49:25.938Z,0
2022-12-12T05:50:24.056Z,0
2022-12-12T05:51:26.737Z,0
2022-12-12T05:52:47.447Z,0
2022-12-12T05:53:43.099Z,0
2022-12-12T05:54:24.809Z,0
2022-12-12T05:55:26.495Z,0
2022-12-12T05:56:24.732Z,0
2022-12-12T05:57:39.610Z,0
2022-12-12T05:58:29.499Z,0
2022-12-12T05:59:23.640Z,0
2022-12-12T06:01:01.543Z,0
2022-12-12T06:01:44.611Z,0
2022-12-12T06:02:43.896Z,0
2022-12-12T06:03:33.737Z,0
2022-12-12T06:04:28.328Z,0
2022-12-12T06:05:34.408Z,0
2022-12-12T06:06:27.336Z,0
2022-12-12T06:07:22.409Z,0
2022-12-12T06:08:36.617Z,0
2022-12-12T06:09:32.779Z,0
2022-12-12T06:10:22.594Z,0
2022-12-12T06:11:23.845Z,0
2022-12-12T06:12:23.684Z,0
2022-12-12T06:13:27.568Z,0
2022-12-12T06:14:24.234Z,0
2022-12-12T06:15:51.261Z,0
2022-12-12T06:16:37.402Z,0
2022-12-12T06:17:22.493Z,0
2022-12-12T06:18:35.733Z,0
2022-12-12T06:19:29.024Z,0
2022-12-12T06:20:22.942Z,0
2022-12-12T06:21:28.359Z,0
2022-12-12T06:22:22.037Z,0
2022-12-12T06:23:40.568Z,0
2022-12-12T06:24:27.408Z,0
2022-12-12T06:25:40.163Z,0
2022-12-12T06:26:33.057Z,0
2022-12-12T06:27:25.113Z,0
2022-12-12T06:28:22.119Z,0
2022-12-12T06:29:56.697Z,0
2022-12-12T06:30:30.627Z,0
2022-12-12T06:31:28.650Z,0
2022-12-12T06:32:37.838Z,0
2022-12-12T06:33:19.875Z,0
2022-12-12T06:34:29.022Z,0
2022-12-12T06:35:24.063Z,0
2022-12-12T06:36:29.669Z,0
2022-12-12T06:37:24.076Z,0
2022-12-12T06:38:33.517Z,0
2022-12-12T06:39:48.389Z,0
2022-12-12T06:40:41.168Z,0
2022-12-12T06:41:27.184Z,-0
2022-12-12T06:42:26.651Z,-0
2022-12-12T06:43:33.793Z,0
2022-12-12T06:44:28.834Z,0
2022-12-12T06:45:21.863Z,0
2022-12-12T06:46:52.397Z,0
2022-12-12T06:47:33.064Z,0
2022-12-12T06:48:37.300Z,0
2022-12-12T06:49:31.156Z,0
2022-12-12T06:50:24.158Z,0
2022-12-12T06:51:33.617Z,0
2022-12-12T06:52:24.419Z,0
2022-12-12T06:53:24.532Z,0
2022-12-12T06:54:21.742Z,0
2022-12-12T06:55:42.266Z,0
2022-12-12T06:56:35.049Z,0
2022-12-12T06:57:26.896Z,0
2022-12-12T06:58:20.912Z,0
2022-12-12T06:59:29.852Z,0
2022-12-12T07:00:21.925Z,0
2022-12-12T07:01:35.573Z,0
2022-12-12T07:02:46.452Z,0
2022-12-12T07:03:22.367Z,0
2022-12-12T07:04:22.618Z,0
2022-12-12T07:05:23.927Z,0
2022-12-12T07:06:32.752Z,0
2022-12-12T07:07:25.596Z,0
2022-12-12T07:08:22.731Z,0
2022-12-12T07:09:26.431Z,0
2022-12-12T07:10:43.241Z,0
2022-12-12T07:11:24.170Z,0
2022-12-12T07:12:27.454Z,0
2022-12-12T07:13:23.919Z,0
2022-12-12T07:14:30.290Z,0
2022-12-12T07:15:23.179Z,0
2022-12-12T07:16:44.457Z,0
2022-12-12T07:17:27.501Z,0
2022-12-12T07:18:28.683Z,0
2022-12-12T07:19:32.447Z,0
2022-12-12T07:20:24.636Z,0
2022-12-12T07:21:37.037Z,0
2022-12-12T07:22:23.851Z,0
2022-12-12T07:23:24.537Z,0
2022-12-12T07:24:46.347Z,0
2022-12-12T07:25:33.410Z,0
2022-12-12T07:26:26.868Z,0
2022-12-12T07:27:30.085Z,0
2022-12-12T07:28:24.911Z,0
2022-12-12T07:29:27.296Z,0
2022-12-12T07:30:24.318Z,0
2022-12-12T07:31:49.361Z,0
2022-12-12T07:32:24.615Z,0
2022-12-12T07:33:28.370Z,0
2022-12-12T07:34:28.257Z,0
2022-12-12T07:35:27.084Z,0
2022-12-12T07:36:30.701Z,0
2022-12-12T07:37:23.858Z,0
2022-12-12T07:38:24.712Z,0
2022-12-12T07:39:39.527Z,0
2022-12-12T07:40:26.280Z,0
2022-12-12T07:41:28.777Z,0
2022-12-12T07:42:29.952Z,0
2022-12-12T07:43:26.544Z,0
2022-12-12T07:44:23.333Z,0
2022-12-12T07:45:41.643Z,0
2022-12-12T07:46:40.638Z,1
2022-12-12T07:47:29.697Z,1
2022-12-12T07:48:22.767Z,1
2022-12-12T07:49:35.104Z,1
2022-12-12T07:50:27.063Z,1
2022-12-12T07:51:21.621Z,1
2022-12-12T07:52:31.698Z,1
2022-12-12T07:53:23.172Z,1
2022-12-12T07:54:25.639Z,1
2022-12-12T07:55:40.327Z,1
2022-12-12T07:56:24.821Z,1
2022-12-12T07:57:32.056Z,1
2022-12-12T07:58:25.850Z,1
2022-12-12T07:59:34.457Z,1
2022-12-12T08:00:29.422Z,1
2022-12-12T08:01:22.981Z,1
2022-12-12T08:02:23.281Z,1
2022-12-12T08:03:25.542Z,1
2022-12-12T08:04:36.190Z,1
2022-12-12T08:05:30.178Z,1
2022-12-12T08:06:23.526Z,1
2022-12-12T08:07:31.439Z,1
2022-12-12T08:08:25.728Z,1
2022-12-12T08:09:23.730Z,1
2022-12-12T08:10:47.275Z,1
2022-12-12T08:11:29.315Z,1
2022-12-12T08:12:33.219Z,1
2022-12-12T08:13:24.878Z,1
2022-12-12T08:14:22.519Z,1
2022-12-12T08:15:29.218Z,1
2022-12-12T08:16:24.600Z,1
2022-12-12T08:17:35.117Z,1
2022-12-12T08:18:44.921Z,1
2022-12-12T08:19:37.350Z,1
2022-12-12T08:20:24.748Z,1
2022-12-12T08:21:26.182Z,1
2022-12-12T08:22:24.868Z,1
2022-12-12T08:23:26.299Z,1
2022-12-12T08:24:56.074Z,1
2022-12-12T08:25:48.300Z,1
2022-12-12T08:26:41.195Z,1
2022-12-12T08:27:24.774Z,1
2022-12-12T08:28:27.063Z,1
2022-12-12T08:29:38.910Z,1
2022-12-12T08:30:32.959Z,1
2022-12-12T08:31:20.365Z,1
2022-12-12T08:32:52.330Z,2
2022-12-12T08:33:45.361Z,2
2022-12-12T08:34:29.225Z,2
2022-12-12T08:35:29.887Z,2
2022-12-12T08:36:23.909Z,2
2022-12-12T08:37:38.976Z,2
2022-12-12T08:38:22.722Z,2
2022-12-12T08:39:22.029Z,2
2022-12-12T08:40:42.114Z,2
2022-12-12T08:41:32.322Z,2
2022-12-12T08:42:33.940Z,2
2022-12-12T08:43:28.148Z,2
2022-12-12T08:44:22.713Z,2
2022-12-12T08:45:25.860Z,2
2022-12-12T08:46:25.316Z,2
2022-12-12T08:47:47.811Z,2
2022-12-12T08:48:35.455Z,2
2022-12-12T08:49:21.612Z,2
2022-12-12T08:50:32.258Z,2
2022-12-12T08:51:25.454Z,2
2022-12-12T08:52:28.883Z,2
2022-12-12T08:53:31.719Z,3
2022-12-12T08:54:24.289Z,3
2022-12-12T08:55:37.082Z,3
2022-12-12T08:56:28.575Z,3
2022-12-12T08:57:37.001Z,3
2022-12-12T08:58:29.405Z,3
2022-12-12T08:59:23.167Z,3
2022-12-12T09:00:34.163Z,3
2022-12-12T09:01:20.692Z,3
2022-12-12T09:02:34.044Z,3
2022-12-12T09:03:29.669Z,3
2022-12-12T09:04:40.390Z,3
2022-12-12T09:05:33.402Z,3
2022-12-12T09:06:24.577Z,3
2022-12-12T09:07:25.458Z,3
2022-12-12T09:08:30.617Z,3
2022-12-12T09:09:23.971Z,3
2022-12-12T09:10:30.760Z,3
2022-12-12T09:11:45.298Z,3
2022-12-12T09:12:41.483Z,3
2022-12-12T09:13:32.239Z,3
2022-12-12T09:14:27.824Z,3
2022-12-12T09:15:35.090Z,3
2022-12-12T09:16:28.238Z,3
2022-12-12T09:17:24.775Z,3
2022-12-12T09:18:19.758Z,3
2022-12-12T09:19:37.683Z,3
2022-12-12T09:20:34.484Z,3
2022-12-12T09:21:29.992Z,3
2022-12-12T09:22:41.908Z,3
2022-12-12T09:23:32.959Z,3
2022-12-12T09:24:28.895Z,3
2022-12-12T09:25:22.797Z,3
2022-12-12T09:26:44.624Z,3
2022-12-12T09:27:39.202Z,3
2022-12-12T09:28:31.758Z,3
2022-12-12T09:29:19.848Z,3
2022-12-12T09:30:32.653Z,3
2022-12-12T09:31:31.054Z,3
2022-12-12T09:32:25.921Z,3
2022-12-12T09:33:49.843Z,3
2022-12-12T09:34:42.625Z,3
2022-12-12T09:35:26.558Z,3
2022-12-12T09:36:24.083Z,4
2022-12-12T09:37:19.523Z,4
2022-12-12T09:38:33.511Z,4
2022-12-12T09:39:29.014Z,4
2022-12-12T09:40:22.521Z,4
2022-12-12T09:41:31.659Z,4
2022-12-12T09:42:39.638Z,4
2022-12-12T09:43:29.414Z,4
2022-12-12T09:44:23.577Z,4
2022-12-12T09:45:37.736Z,4
2022-12-12T09:46:23.171Z,4
2022-12-12T09:47:24.141Z,4
2022-12-12T09:48:50.866Z,4
2022-12-12T09:49:44.223Z,4
2022-12-12T09:50:29.117Z,4
2022-12-12T09:51:27.781Z,4
2022-12-12T09:52:29.293Z,4
2022-12-12T09:53:39.891Z,4
2022-12-12T09:54:28.068Z,4
2022-12-12T09:55:22.121Z,4
2022-12-12T09:56:46.897Z,4
2022-12-12T09:57:30.148Z,4
2022-12-12T09:58:32.745Z,4
2022-12-12T09:59:24.899Z,4
2022-12-12T10:00:39.454Z,4
2022-12-12T10:01:24.974Z,4
2022-12-12T10:02:25.316Z,4
2022-12-12T10:03:23.392Z,4
2022-12-12T10:04:35.141Z,4
2022-12-12T10:05:19.799Z,4
2022-12-12T10:06:37.115Z,4
2022-12-12T10:07:24.511Z,4
2022-12-12T10:08:28.511Z,4
2022-12-12T10:09:29.385Z,4
2022-12-12T10:10:23.362Z,4
2022-12-12T10:11:36.228Z,4
2022-12-12T10:12:25.670Z,4
2022-12-12T10:13:33.878Z,4
2022-12-12T10:14:26.926Z,4
2022-12-12T10:15:33.738Z,4
2022-12-12T10:16:34.114Z,4
2022-12-12T10:17:28.450Z,4
2022-12-12T10:18:20.083Z,4
2022-12-12T10:19:26.089Z,4
2022-12-12T10:20:27.093Z,5
2022-12-12T10:21:30.414Z,5
2022-12-12T10:22:24.632Z,5
2022-12-12T10:23:22.087Z,5
2022-12-12T10:24:31.654Z,5
2022-12-12T10:25:24.042Z,5
2022-12-12T10:26:30.673Z,5
2022-12-12T10:27:42.455Z,5
2022-12-12T10:28:35.130Z,5
2022-12-12T10:29:27.850Z,5
2022-12-12T10:30:23.938Z,6
2022-12-12T10:31:22.656Z,6
2022-12-12T10:32:29.855Z,6
2022-12-12T10:33:23.373Z,7
2022-12-12T10:34:46.317Z,7
2022-12-12T10:35:39.398Z,7
2022-12-12T10:36:30.587Z,6
2022-12-12T10:37:23.457Z,6
2022-12-12T10:38:40.522Z,6
2022-12-12T10:39:34.031Z,6
2022-12-12T10:40:26.753Z,6
2022-12-12T10:41:23.647Z,6
2022-12-12T10:42:19.669Z,6
2022-12-12T10:43:36.504Z,6
2022-12-12T10:44:31.144Z,6
2022-12-12T10:45:23.182Z,6
2022-12-12T10:46:39.193Z,6
2022-12-12T10:47:29.952Z,6
2022-12-12T10:48:25.079Z,6
2022-12-12T10:49:37.415Z,7
2022-12-12T10:50:40.389Z,7
2022-12-12T10:51:34.820Z,6
2022-12-12T10:52:25.333Z,6
2022-12-12T10:53:43.749Z,6
2022-12-12T10:54:30.980Z,6
2022-12-12T10:55:28.255Z,6
2022-12-12T10:56:20.743Z,6
2022-12-12T10:57:44.640Z,6
2022-12-12T10:58:37.513Z,6
2022-12-12T10:59:24.424Z,6
2022-12-12T11:00:22.322Z,6
2022-12-12T11:02:15.577Z,6
2022-12-12T11:02:33.205Z,6
2022-12-12T11:03:24.222Z,6
2022-12-12T11:04:47.778Z,6
2022-12-12T11:05:28.705Z,6
2022-12-12T11:06:26.062Z,6
2022-12-12T11:07:25.914Z,6
2022-12-12T11:08:45.061Z,6
2022-12-12T11:09:38.056Z,6
2022-12-12T11:10:26.762Z,6
2022-12-12T11:11:23.361Z,6
2022-12-12T11:12:44.717Z,6
2022-12-12T11:13:29.163Z,6
2022-12-12T11:14:30.818Z,6
2022-12-12T11:15:23.427Z,6
2022-12-12T11:16:26.296Z,6
2022-12-12T11:17:24.767Z,6
2022-12-12T11:18:26.060Z,6
2022-12-12T11:19:46.113Z,7
2022-12-12T11:20:34.208Z,7
2022-12-12T11:21:33.553Z,7
2022-12-12T11:22:29.879Z,8
2022-12-12T11:23:20.951Z,8
2022-12-12T11:24:27.120Z,9
2022-12-12T11:25:30.104Z,9
2022-12-12T11:26:24.066Z,10
2022-12-12T11:27:22.239Z,10
2022-12-12T11:28:24.753Z,10
2022-12-12T11:29:31.445Z,11
2022-12-12T11:30:26.784Z,11
2022-12-12T11:31:31.993Z,12
2022-12-12T11:32:34.181Z,12
2022-12-12T11:33:27.300Z,12
2022-12-12T11:34:24.554Z,11
2022-12-12T11:35:25.189Z,11
2022-12-12T11:36:36.260Z,11
2022-12-12T11:37:29.161Z,11
2022-12-12T11:38:24.102Z,11
2022-12-12T11:39:22.099Z,12
2022-12-12T11:40:31.313Z,11
2022-12-12T11:41:26.718Z,10
2022-12-12T11:42:29.646Z,10
2022-12-12T11:43:38.464Z,10
2022-12-12T11:44:23.101Z,11
2022-12-12T11:45:26.382Z,12
2022-12-12T11:46:23.124Z,13
2022-12-12T11:47:37.705Z,13
2022-12-12T11:48:28.833Z,13
2022-12-12T11:49:22.423Z,12
2022-12-12T11:50:28.771Z,12
2022-12-12T11:51:35.760Z,12
2022-12-12T11:52:31.202Z,16
2022-12-12T11:53:24.373Z,23
2022-12-12T11:54:41.342Z,19
2022-12-12T11:55:23.147Z,14
2022-12-12T11:56:26.550Z,15
2022-12-12T11:57:24.981Z,13
2022-12-12T11:58:40.854Z,15
2022-12-12T11:59:33.688Z,11
2022-12-12T12:00:25.636Z,11
2022-12-12T12:01:25.607Z,10
2022-12-12T12:02:39.401Z,10
2022-12-12T12:03:30.850Z,10
2022-12-12T12:04:25.284Z,9
2022-12-12T12:05:59.033Z,9
2022-12-12T12:06:37.961Z,9
2022-12-12T12:07:30.870Z,9
2022-12-12T12:08:24.169Z,9
2022-12-12T12:09:42.691Z,8
2022-12-12T12:10:34.423Z,7
2022-12-12T12:11:27.255Z,7
2022-12-12T12:12:22.988Z,8
2022-12-12T12:13:36.232Z,8
2022-12-12T12:14:35.023Z,8
2022-12-12T12:15:28.141Z,8
2022-12-12T12:16:22.496Z,8
2022-12-12T12:17:40.735Z,10
2022-12-12T12:18:33.889Z,15
2022-12-12T12:19:24.877Z,16
2022-12-12T12:20:45.561Z,13
2022-12-12T12:21:39.518Z,15
2022-12-12T12:22:25.340Z,19
2022-12-12T12:23:23.359Z,15
2022-12-12T12:24:33.296Z,18
2022-12-12T12:25:36.007Z,26
2022-12-12T12:26:24.128Z,23
2022-12-12T12:27:49.892Z,17
2022-12-12T12:28:42.801Z,18
2022-12-12T12:29:24.714Z,17
2022-12-12T12:30:27.583Z,15
2022-12-12T12:31:23.615Z,21
2022-12-12T12:32:35.946Z,15
2022-12-12T12:33:23.374Z,11
2022-12-12T12:34:26.505Z,10
2022-12-12T12:35:47.097Z,10
2022-12-12T12:36:33.303Z,10
2022-12-12T12:37:31.697Z,10
2022-12-12T12:38:24.781Z,9
2022-12-12T12:39:40.755Z,9
2022-12-12T12:40:20.495Z,9
2022-12-12T12:41:30.964Z,10
2022-12-12T12:42:50.535Z,9
2022-12-12T12:43:35.006Z,10
2022-12-12T12:44:23.671Z,10
2022-12-12T12:45:29.543Z,10
2022-12-12T12:46:25.567Z,10
2022-12-12T12:47:29.412Z,10
2022-12-12T12:48:35.889Z,11
2022-12-12T12:49:29.827Z,12
2022-12-12T12:50:20.845Z,11
2022-12-12T12:51:24.317Z,10
2022-12-12T12:52:33.847Z,11
2022-12-12T12:53:25.432Z,10
2022-12-12T12:54:32.455Z,10
2022-12-12T12:55:40.202Z,10
2022-12-12T12:56:32.644Z,10
2022-12-12T12:57:26.053Z,11
2022-12-12T12:58:27.299Z,11
2022-12-12T12:59:36.520Z,10
2022-12-12T13:00:30.756Z,9
2022-12-12T13:01:24.140Z,9
2022-12-12T13:02:27.163Z,9
2022-12-12T13:03:28.417Z,9
2022-12-12T13:04:30.373Z,9
2022-12-12T13:05:25.294Z,9
2022-12-12T13:06:40.659Z,14
2022-12-12T13:07:39.138Z,17
2022-12-12T13:08:19.880Z,16
2022-12-12T13:09:25.369Z,14
2022-12-12T13:10:41.752Z,9
2022-12-12T13:11:34.771Z,10
2022-12-12T13:12:28.582Z,9
2022-12-12T13:13:20.168Z,12
2022-12-12T13:14:29.929Z,16
2022-12-12T13:15:30.750Z,15
2022-12-12T13:16:24.313Z,15
2022-12-12T13:17:44.459Z,13
2022-12-12T13:18:51.141Z,11
2022-12-12T13:19:32.017Z,10
2022-12-12T13:20:23.901Z,9
2022-12-12T13:21:44.916Z,9
2022-12-12T13:22:35.658Z,10
2022-12-12T13:23:27.850Z,9
2022-12-12T13:24:20.709Z,10
2022-12-12T13:25:25.529Z,10
2022-12-12T13:26:35.820Z,8
2022-12-12T13:27:29.101Z,7
2022-12-12T13:28:20.952Z,8
2022-12-12T13:29:40.674Z,7
2022-12-12T13:30:31.442Z,7
2022-12-12T13:31:23.415Z,7
2022-12-12T13:32:40.675Z,7
2022-12-12T13:33:39.220Z,7
2022-12-12T13:34:33.499Z,7
2022-12-12T13:35:25.162Z,7
2022-12-12T13:36:45.145Z,7
2022-12-12T13:37:38.220Z,7
2022-12-12T13:38:30.150Z,8
2022-12-12T13:39:21.470Z,9
2022-12-12T13:40:20.693Z,10
2022-12-12T13:41:33.574Z,9
2022-12-12T13:42:29.357Z,8
2022-12-12T13:43:26.265Z,7
2022-12-12T13:44:41.549Z,8
2022-12-12T13:45:29.472Z,8
2022-12-12T13:46:25.641Z,7
2022-12-12T13:47:49.231Z,7
2022-12-12T13:48:30.136Z,6
2022-12-12T13:49:23.886Z,6
2022-12-12T13:50:28.035Z,6
2022-12-12T13:51:20.854Z,6
2022-12-12T13:52:30.455Z,6
2022-12-12T13:53:22.806Z,6
2022-12-12T13:54:22.298Z,6
2022-12-12T13:55:38.199Z,6
2022-12-12T13:56:27.806Z,6
2022-12-12T13:57:30.974Z,6
2022-12-12T13:58:23.826Z,6
2022-12-12T13:59:27.115Z,6
2022-12-12T14:00:24.490Z,6
2022-12-12T14:01:26.484Z,6
2022-12-12T14:02:19.328Z,6
2022-12-12T14:03:28.454Z,6
2022-12-12T14:04:35.078Z,5
2022-12-12T14:05:32.423Z,5
2022-12-12T14:06:23.143Z,5
2022-12-12T14:07:26.530Z,5
2022-12-12T14:08:24.148Z,4
2022-12-12T14:09:41.176Z,4
2022-12-12T14:10:22.837Z,4
2022-12-12T14:11:35.626Z,4
2022-12-12T14:12:33.732Z,4
2022-12-12T14:13:27.261Z,4
2022-12-12T14:14:27.108Z,4
2022-12-12T14:15:35.326Z,4
2022-12-12T14:16:27.144Z,4
2022-12-12T14:17:24.366Z,4
2022-12-12T14:18:24.716Z,4
2022-12-12T14:19:39.195Z,3
2022-12-12T14:20:31.100Z,3
2022-12-12T14:21:20.867Z,3
2022-12-12T14:22:23.013Z,3
2022-12-12T14:23:31.685Z,3
2022-12-12T14:24:26.534Z,3
2022-12-12T14:25:25.142Z,3
2022-12-12T14:26:34.440Z,3
2022-12-12T14:27:24.508Z,3
2022-12-12T14:28:26.862Z,3
2022-12-12T14:29:21.207Z,3
2022-12-12T14:30:36.958Z,3
2022-12-12T14:31:33.376Z,3
2022-12-12T14:32:23.916Z,3
2022-12-12T14:33:30.797Z,3
2022-12-12T14:34:39.655Z,3
2022-12-12T14:35:26.544Z,3
2022-12-12T14:36:24.051Z,2
2022-12-12T14:37:40.235Z,2
2022-12-12T14:38:28.179Z,2
2022-12-12T14:39:25.332Z,2
2022-12-12T14:40:51.763Z,2
2022-12-12T14:41:29.859Z,2
2022-12-12T14:42:24.614Z,2
2022-12-12T14:43:25.564Z,2
2022-12-12T14:44:36.470Z,2
2022-12-12T14:45:42.555Z,2
2022-12-12T14:46:25.630Z,2
2022-12-12T14:47:24.597Z,2
2022-12-12T14:48:30.424Z,2
2022-12-12T14:49:24.595Z,2
2022-12-12T14:50:34.046Z,2
2022-12-12T14:51:29.554Z,2
2022-12-12T14:52:40.699Z,2
2022-12-12T14:53:25.719Z,2
2022-12-12T14:54:26.601Z,2
2022-12-12T14:55:24.768Z,2
2022-12-12T14:56:40.359Z,2
2022-12-12T14:57:32.550Z,2
2022-12-12T14:58:29.789Z,1
2022-12-12T14:59:46.042Z,1
2022-12-12T15:00:39.324Z,1